Time;durP1;ratioP1;P1;durP2;ratioP2;P2;SDS_P1;SDS_P2;PMS_P1;PMS_P2;Temp;Humidity;BMP_temperature;BMP_pressure;BME280_temperature;BME280_humidity;BME280_pressure;Samples;Min_cycle;Max_cycle;Signal;HPM_P1;HPM_P2
2023/05/20 00:00:14;;;;;;;7.37;6.00;;;11.80;99.90;;;;;;5102129;28;20459;-81
2023/05/20 00:02:39;;;;;;;7.03;6.33;;;11.80;99.90;;;;;;5113439;28;20468;-81
2023/05/20 00:05:05;;;;;;;6.78;5.97;;;11.80;99.90;;;;;;5101508;28;20775;-81
2023/05/20 00:07:31;;;;;;;7.63;6.50;;;11.80;99.90;;;;;;5073861;28;20385;-81
2023/05/20 00:09:56;;;;;;;7.78;6.55;;;11.80;99.90;;;;;;5097744;28;20392;-81
2023/05/20 00:12:22;;;;;;;7.10;6.50;;;11.80;99.90;;;;;;5113077;28;20527;-81
2023/05/20 00:14:47;;;;;;;7.30;6.60;;;11.90;99.90;;;;;;5094856;28;20381;-81
2023/05/20 00:17:13;;;;;;;7.00;6.30;;;11.80;99.90;;;;;;5113225;28;20402;-81
2023/05/20 00:19:38;;;;;;;6.57;6.07;;;11.90;99.90;;;;;;5092230;28;20380;-81
2023/05/20 00:22:04;;;;;;;7.40;6.40;;;11.90;99.90;;;;;;5092290;28;20386;-81
2023/05/20 00:24:29;;;;;;;7.63;6.50;;;11.90;99.90;;;;;;5073946;28;20748;-82
2023/05/20 00:26:55;;;;;;;6.97;6.32;;;11.90;99.90;;;;;;5073659;28;20394;-81
2023/05/20 00:29:21;;;;;;;6.80;6.20;;;11.90;99.90;;;;;;5092170;28;20382;-81
2023/05/20 00:31:47;;;;;;;6.78;6.18;;;11.90;99.90;;;;;;5111176;28;20479;-81
2023/05/20 00:34:12;;;;;;;7.25;6.55;;;11.90;99.90;;;;;;5094531;28;20540;-81
2023/05/20 00:36:38;;;;;;;7.83;6.80;;;11.90;99.90;;;;;;5091558;28;20465;-81
2023/05/20 00:39:03;;;;;;;7.03;6.43;;;11.80;99.90;;;;;;5091822;28;20440;-81
2023/05/20 00:41:29;;;;;;;6.50;5.80;;;11.90;99.90;;;;;;5091639;28;20393;-81
2023/05/20 00:43:55;;;;;;;6.85;6.25;;;12.00;99.90;;;;;;5106720;28;20392;-82
2023/05/20 00:46:23;;;;;;;7.20;6.50;;;12.00;99.90;;;;;;5112837;28;20414;-82
2023/05/20 00:48:49;;;;;;;7.88;6.63;;;11.90;99.90;;;;;;5097709;28;20419;-82
2023/05/20 00:51:15;;;;;;;7.50;6.50;;;12.00;99.90;;;;;;5112102;28;20828;-81
2023/05/20 00:53:42;;;;;;;8.23;6.50;;;11.90;99.90;;;;;;5113223;28;20434;-81
2023/05/20 00:56:08;;;;;;;6.80;6.20;;;11.90;99.90;;;;;;5093099;28;20496;-81
2023/05/20 00:58:37;;;;;;;7.28;6.57;;;11.80;99.90;;;;;;5100026;28;20417;-81
2023/05/20 01:01:03;;;;;;;7.50;6.80;;;11.90;99.90;;;;;;5092271;28;20382;-82
2023/05/20 01:03:29;;;;;;;7.68;6.88;;;11.80;99.90;;;;;;5074459;28;20455;-81
2023/05/20 01:05:55;;;;;;;7.70;7.00;;;11.80;99.90;;;;;;5091849;28;20402;-81
2023/05/20 01:08:22;;;;;;;7.80;7.10;;;11.80;99.90;;;;;;5092322;28;20982;-81
2023/05/20 01:10:53;;;;;;;6.47;5.88;;;11.90;99.90;;;;;;5091017;28;20757;-81
2023/05/20 01:13:23;;;;;;;8.80;6.38;;;11.80;99.90;;;;;;5073581;28;20377;-81
2023/05/20 01:15:49;;;;;;;7.20;6.50;;;11.80;99.90;;;;;;5084471;28;20392;-81
2023/05/20 01:18:17;;;;;;;7.10;6.40;;;11.70;99.90;;;;;;5094832;28;20373;-81
2023/05/20 01:20:46;;;;;;;7.40;6.80;;;11.70;99.90;;;;;;5081530;28;20401;-82
2023/05/20 01:23:11;;;;;;;7.53;6.72;;;11.80;99.90;;;;;;5092568;28;20428;-81
2023/05/20 01:25:37;;;;;;;7.70;6.90;;;11.80;99.90;;;;;;5072373;28;20462;-81
2023/05/20 01:28:02;;;;;;;7.03;6.43;;;11.80;99.90;;;;;;5091929;28;20414;-81
2023/05/20 01:30:37;;;;;;;7.83;6.70;;;11.80;99.90;;;;;;5082635;28;20440;-81
2023/05/20 01:33:10;;;;;;;7.30;6.60;;;11.80;99.90;;;;;;5111683;28;20368;-81
2023/05/20 01:35:36;;;;;;;7.90;6.90;;;11.80;99.90;;;;;;5107360;28;20521;-81
2023/05/20 01:38:04;;;;;;;8.00;7.20;;;11.80;99.90;;;;;;5095540;28;20382;-82
2023/05/20 01:40:31;;;;;;;7.60;7.00;;;11.80;99.90;;;;;;5096260;28;20378;-82
2023/05/20 01:42:58;;;;;;;6.90;6.18;;;11.80;99.90;;;;;;5096046;28;20382;-82
2023/05/20 01:45:24;;;;;;;9.77;7.13;;;11.80;99.90;;;;;;5094970;28;20801;-81
2023/05/20 01:47:50;;;;;;;8.10;7.40;;;11.80;99.90;;;;;;5076618;28;20478;-82
2023/05/20 01:50:15;;;;;;;7.27;6.67;;;11.80;99.90;;;;;;5094387;28;20407;-81
2023/05/20 01:52:41;;;;;;;8.70;7.10;;;11.80;99.90;;;;;;5094986;28;20423;-81
2023/05/20 01:55:07;;;;;;;8.48;7.70;;;11.80;99.90;;;;;;5104997;28;20384;-81
2023/05/20 01:57:32;;;;;;;7.95;6.80;;;11.80;99.90;;;;;;5128923;28;20467;-82
2023/05/20 01:59:58;;;;;;;7.45;6.75;;;11.80;99.90;;;;;;5116434;28;20372;-81
2023/05/20 02:02:23;;;;;;;6.87;6.27;;;11.80;99.90;;;;;;5117191;28;20380;-81
2023/05/20 02:04:50;;;;;;;7.43;6.63;;;11.80;99.90;;;;;;5113261;28;20393;-82
2023/05/20 02:07:17;;;;;;;7.72;6.93;;;11.80;99.90;;;;;;5111843;28;20434;-82
2023/05/20 02:09:43;;;;;;;8.23;7.40;;;11.80;99.90;;;;;;5085280;28;20386;-81
2023/05/20 02:12:15;;;;;;;9.68;7.10;;;11.80;99.90;;;;;;5095196;28;20410;-81
2023/05/20 02:14:40;;;;;;;7.30;6.70;;;11.80;99.90;;;;;;5077729;28;20870;-82
2023/05/20 02:17:06;;;;;;;6.87;6.20;;;11.80;99.90;;;;;;5097921;28;20378;-81
2023/05/20 02:19:31;;;;;;;8.00;6.43;;;11.80;99.90;;;;;;5117078;28;20431;-82
2023/05/20 02:21:57;;;;;;;7.07;6.47;;;11.80;99.90;;;;;;5116058;28;20390;-82
2023/05/20 02:24:22;;;;;;;7.63;6.93;;;11.70;99.90;;;;;;5098766;28;20388;-81
2023/05/20 02:26:50;;;;;;;8.50;6.90;;;11.80;99.90;;;;;;5115032;28;20396;-81
2023/05/20 02:29:16;;;;;;;7.90;7.10;;;11.70;99.90;;;;;;5104837;28;20390;-81
2023/05/20 02:31:41;;;;;;;7.95;7.15;;;11.80;99.90;;;;;;5077907;28;20398;-82
2023/05/20 02:34:07;;;;;;;8.35;7.55;;;11.80;99.90;;;;;;5095266;28;20381;-81
2023/05/20 02:36:32;;;;;;;7.43;6.75;;;11.80;99.90;;;;;;5076433;28;20598;-82
2023/05/20 02:38:59;;;;;;;7.80;7.00;;;11.80;99.90;;;;;;5084889;28;20746;-81
2023/05/20 02:41:25;;;;;;;8.30;6.82;;;11.70;99.90;;;;;;5115214;28;20468;-82
2023/05/20 02:43:51;;;;;;;7.65;6.95;;;11.80;99.90;;;;;;5097262;28;20873;-82
2023/05/20 02:46:18;;;;;;;6.90;6.20;;;11.80;99.90;;;;;;5097989;28;20377;-81
2023/05/20 02:48:44;;;;;;;6.93;6.32;;;11.90;99.90;;;;;;5103093;28;20452;-82
2023/05/20 02:51:10;;;;;;;7.50;6.80;;;11.80;99.90;;;;;;5133543;28;20396;-81
2023/05/20 02:53:35;;;;;;;7.47;6.78;;;11.90;99.90;;;;;;5115468;28;20904;-82
2023/05/20 02:56:03;;;;;;;6.83;6.13;;;11.90;99.90;;;;;;5115520;28;20488;-82
2023/05/20 02:58:29;;;;;;;7.28;6.60;;;11.80;99.90;;;;;;5122231;28;20425;-82
2023/05/20 03:00:56;;;;;;;6.57;5.97;;;11.90;99.90;;;;;;5099511;28;20386;-82
2023/05/20 03:03:24;;;;;;;7.97;7.28;;;11.80;99.90;;;;;;5095457;28;20810;-81
2023/05/20 03:05:50;;;;;;;9.25;6.70;;;11.80;99.90;;;;;;5077646;28;20398;-82
2023/05/20 03:08:17;;;;;;;6.95;6.35;;;11.70;99.90;;;;;;5094997;28;20378;-81
2023/05/20 03:10:43;;;;;;;6.70;6.10;;;11.70;99.90;;;;;;5076391;28;20394;-81
2023/05/20 03:13:10;;;;;;;7.50;6.80;;;11.70;99.90;;;;;;5076449;28;20393;-81
2023/05/20 03:15:36;;;;;;;6.72;6.00;;;11.60;99.90;;;;;;5087561;28;20403;-81
2023/05/20 03:18:02;;;;;;;6.80;6.10;;;11.60;99.90;;;;;;5096384;28;20406;-81
2023/05/20 03:20:28;;;;;;;7.15;6.45;;;11.60;99.90;;;;;;5114855;28;20896;-81
2023/05/20 03:22:54;;;;;;;8.23;6.50;;;11.50;99.90;;;;;;5106176;28;20417;-81
2023/05/20 03:25:21;;;;;;;7.73;6.13;;;11.40;99.90;;;;;;5075539;28;20948;-81
2023/05/20 03:27:47;;;;;;;7.70;6.90;;;11.40;99.90;;;;;;5075652;28;20370;-82
2023/05/20 03:30:13;;;;;;;7.30;6.70;;;11.30;99.90;;;;;;5075538;28;20443;-81
2023/05/20 03:32:39;;;;;;;7.13;6.53;;;11.30;99.90;;;;;;5081326;28;20399;-81
2023/05/20 03:35:05;;;;;;;7.45;6.38;;;11.30;99.90;;;;;;5096034;28;20773;-81
2023/05/20 03:37:31;;;;;;;7.03;6.33;;;11.20;99.90;;;;;;5075373;28;20382;-81
2023/05/20 03:39:57;;;;;;;11.40;7.03;;;11.10;99.90;;;;;;5075660;28;20385;-81
2023/05/20 03:42:23;;;;;;;7.10;6.50;;;11.10;99.90;;;;;;5075315;28;20765;-81
2023/05/20 03:44:48;;;;;;;6.90;6.30;;;11.10;99.90;;;;;;5075323;28;20397;-81
2023/05/20 03:47:14;;;;;;;7.47;6.70;;;11.00;99.90;;;;;;5091640;28;20385;-81
2023/05/20 03:49:40;;;;;;;7.10;6.50;;;11.00;99.90;;;;;;5095846;28;20392;-81
2023/05/20 03:52:06;;;;;;;7.45;6.70;;;10.90;99.90;;;;;;5095153;28;20507;-81
2023/05/20 03:54:32;;;;;;;7.15;6.45;;;10.90;99.90;;;;;;5091456;28;20393;-81
2023/05/20 03:56:59;;;;;;;7.57;6.80;;;10.90;99.90;;;;;;5075070;28;20386;-81
2023/05/20 03:59:26;;;;;;;7.03;6.32;;;10.90;99.90;;;;;;5074774;28;20734;-80
2023/05/20 04:01:52;;;;;;;7.30;6.60;;;10.80;99.90;;;;;;5090413;28;20397;-81
2023/05/20 04:04:17;;;;;;;7.30;6.60;;;10.90;99.90;;;;;;5076249;28;20418;-81
2023/05/20 04:06:43;;;;;;;6.53;5.93;;;11.00;99.90;;;;;;5071330;28;20397;-80
2023/05/20 04:09:09;;;;;;;7.00;6.30;;;10.90;99.90;;;;;;5082494;28;20401;-81
2023/05/20 04:11:35;;;;;;;7.15;6.30;;;10.80;99.90;;;;;;5086024;28;20409;-81
2023/05/20 04:14:01;;;;;;;7.80;7.10;;;10.80;99.90;;;;;;5094627;28;20906;-82
2023/05/20 04:16:28;;;;;;;6.40;5.80;;;10.80;99.90;;;;;;5113312;28;20377;-81
2023/05/20 04:18:54;;;;;;;6.82;6.18;;;10.80;99.90;;;;;;5100973;28;20388;-81
2023/05/20 04:21:20;;;;;;;8.47;6.90;;;10.80;99.90;;;;;;5095391;28;20376;-81
2023/05/20 04:23:45;;;;;;;7.00;6.30;;;10.80;99.90;;;;;;5080154;28;20910;-81
2023/05/20 04:26:11;;;;;;;7.20;6.60;;;10.70;99.90;;;;;;5093342;28;21022;-81
2023/05/20 04:28:37;;;;;;;8.15;6.82;;;10.60;99.90;;;;;;5081148;28;20885;-81
2023/05/20 04:31:04;;;;;;;7.28;6.57;;;10.70;99.90;;;;;;5095316;28;20435;-81
2023/05/20 04:33:31;;;;;;;7.22;6.50;;;10.70;99.90;;;;;;5095288;28;20368;-81
2023/05/20 04:35:57;;;;;;;7.03;6.43;;;10.70;99.90;;;;;;5094449;28;20742;-81
2023/05/20 04:38:31;;;;;;;7.15;6.45;;;10.60;99.90;;;;;;5091335;28;20390;-81
2023/05/20 04:40:57;;;;;;;7.50;6.70;;;10.60;99.90;;;;;;5075082;28;20898;-81
2023/05/20 04:43:24;;;;;;;8.10;6.60;;;10.60;99.90;;;;;;5074712;28;20382;-81
2023/05/20 04:45:51;;;;;;;7.60;6.90;;;10.60;99.90;;;;;;5076004;28;20390;-81
2023/05/20 04:48:18;;;;;;;8.45;6.70;;;10.60;99.90;;;;;;5079666;28;20385;-81
2023/05/20 04:50:44;;;;;;;6.90;6.20;;;10.70;99.90;;;;;;5075499;28;20406;-81
2023/05/20 04:53:11;;;;;;;8.02;7.20;;;10.80;99.90;;;;;;5076258;28;20385;-81
2023/05/20 04:55:37;;;;;;;8.40;6.75;;;10.70;99.90;;;;;;5064106;28;20404;-81
2023/05/20 04:58:03;;;;;;;7.88;7.18;;;10.80;99.90;;;;;;5083523;28;20756;-81
2023/05/20 05:00:29;;;;;;;7.80;6.97;;;10.80;99.90;;;;;;5102406;28;20391;-81
2023/05/20 05:02:54;;;;;;;7.80;7.00;;;11.00;99.90;;;;;;5104354;28;20399;-80
2023/05/20 05:05:20;;;;;;;7.50;6.30;;;11.10;99.90;;;;;;5094341;28;20392;-80
2023/05/20 05:07:46;;;;;;;7.20;6.50;;;11.30;99.90;;;;;;5110747;28;20392;-81
2023/05/20 05:10:11;;;;;;;7.03;6.23;;;11.30;99.90;;;;;;5098813;28;20440;-81
2023/05/20 05:12:37;;;;;;;8.25;5.90;;;11.30;99.90;;;;;;5094568;28;20388;-81
2023/05/20 05:15:03;;;;;;;6.28;5.63;;;11.40;99.90;;;;;;5098651;28;20384;-81
2023/05/20 05:17:29;;;;;;;7.10;5.90;;;11.40;99.90;;;;;;5086572;28;20489;-80
2023/05/20 05:19:55;;;;;;;6.40;5.83;;;11.50;99.90;;;;;;5094598;28;20531;-81
2023/05/20 05:22:21;;;;;;;6.13;5.50;;;11.60;99.90;;;;;;5079037;28;20378;-81
2023/05/20 05:24:46;;;;;;;6.07;5.50;;;11.60;99.90;;;;;;5095261;28;20404;-81
2023/05/20 05:27:12;;;;;;;5.80;5.30;;;11.60;99.90;;;;;;5081891;28;20421;-81
2023/05/20 05:29:38;;;;;;;7.32;6.10;;;11.60;99.90;;;;;;5091706;28;20389;-81
2023/05/20 05:32:04;;;;;;;6.82;5.50;;;11.70;99.90;;;;;;5087957;28;20392;-81
2023/05/20 05:34:30;;;;;;;6.32;5.72;;;11.90;99.90;;;;;;5103116;28;20722;-80
2023/05/20 05:36:56;;;;;;;7.23;6.03;;;11.90;99.90;;;;;;5094136;28;20789;-81
2023/05/20 05:39:21;;;;;;;6.78;6.07;;;12.00;99.90;;;;;;5099876;28;20473;-81
2023/05/20 05:41:47;;;;;;;7.15;5.68;;;12.00;99.90;;;;;;5087435;28;20427;-80
2023/05/20 05:44:14;;;;;;;6.40;5.80;;;12.00;99.90;;;;;;5112111;28;20385;-81
2023/05/20 05:46:39;;;;;;;5.80;5.20;;;12.10;99.90;;;;;;5099277;28;20890;-81
2023/05/20 05:49:05;;;;;;;6.40;5.40;;;12.10;99.90;;;;;;5081414;28;20386;-81
2023/05/20 05:51:31;;;;;;;5.40;4.93;;;12.20;99.90;;;;;;5093297;28;20398;-81
2023/05/20 05:53:57;;;;;;;5.60;5.10;;;12.20;99.90;;;;;;5086680;28;20496;-81
2023/05/20 05:56:23;;;;;;;8.30;5.37;;;12.40;99.90;;;;;;5085276;28;20382;-81
2023/05/20 05:58:48;;;;;;;5.70;5.20;;;12.40;99.90;;;;;;5095796;28;20904;-81
2023/05/20 06:01:14;;;;;;;6.90;5.40;;;12.40;99.90;;;;;;5081716;28;20475;-81
2023/05/20 06:03:40;;;;;;;5.60;4.97;;;12.50;99.90;;;;;;5111721;28;20384;-81
2023/05/20 06:06:05;;;;;;;6.75;5.50;;;12.40;99.90;;;;;;5080544;28;20405;-81
2023/05/20 06:08:31;;;;;;;5.80;5.20;;;12.30;99.90;;;;;;5076196;28;20386;-81
2023/05/20 06:10:57;;;;;;;5.90;5.30;;;12.40;99.90;;;;;;5088414;28;20406;-81
2023/05/20 06:13:22;;;;;;;7.70;5.70;;;12.30;99.90;;;;;;5081471;28;20879;-81
2023/05/20 06:15:49;;;;;;;6.93;5.30;;;12.30;99.90;;;;;;5107349;28;20390;-81
2023/05/20 06:18:15;;;;;;;6.03;5.40;;;12.40;99.90;;;;;;5105914;28;20459;-81
2023/05/20 06:20:41;;;;;;;6.00;5.50;;;12.50;99.90;;;;;;5097358;28;20469;-81
2023/05/20 06:23:06;;;;;;;5.90;5.30;;;12.50;99.90;;;;;;5080025;28;20382;-81
2023/05/20 06:25:32;;;;;;;6.07;5.50;;;12.70;99.90;;;;;;5086541;28;20389;-81
2023/05/20 06:27:57;;;;;;;6.10;5.40;;;12.70;99.90;;;;;;5091188;28;20378;-81
2023/05/20 06:30:23;;;;;;;6.78;6.10;;;12.80;99.90;;;;;;5089619;28;20810;-81
2023/05/20 06:32:49;;;;;;;6.40;5.80;;;12.80;99.90;;;;;;5099605;28;20797;-81
2023/05/20 06:35:15;;;;;;;6.18;5.40;;;12.90;99.90;;;;;;5084032;28;20391;-81
2023/05/20 06:37:41;;;;;;;6.60;5.70;;;12.90;99.90;;;;;;5096379;28;20388;-80
2023/05/20 06:40:07;;;;;;;7.38;5.88;;;13.00;99.90;;;;;;5109546;28;20438;-81
2023/05/20 06:42:33;;;;;;;6.00;5.50;;;13.10;99.90;;;;;;5085399;28;20903;-81
2023/05/20 06:44:58;;;;;;;6.20;5.60;;;13.10;99.90;;;;;;5087176;28;20388;-82
2023/05/20 06:47:24;;;;;;;6.53;5.93;;;13.40;99.90;;;;;;5077593;28;20386;-82
2023/05/20 06:49:50;;;;;;;6.50;5.70;;;13.50;99.90;;;;;;5079247;28;20488;-83
2023/05/20 06:52:15;;;;;;;6.25;5.65;;;13.60;99.90;;;;;;5095735;28;20404;-82
2023/05/20 06:54:41;;;;;;;6.78;5.55;;;13.70;99.90;;;;;;5077159;28;20417;-82
2023/05/20 06:57:07;;;;;;;5.75;5.00;;;13.90;99.90;;;;;;5078382;28;20404;-83
2023/05/20 06:59:34;;;;;;;5.40;4.90;;;14.10;99.90;;;;;;5097615;28;20381;-82
2023/05/20 07:02:00;;;;;;;5.00;4.60;;;14.20;99.90;;;;;;5078592;28;20390;-82
2023/05/20 07:04:25;;;;;;;6.55;4.75;;;14.40;99.90;;;;;;5076991;28;20474;-82
2023/05/20 07:06:51;;;;;;;4.70;4.30;;;14.50;99.90;;;;;;5076357;28;20975;-82
2023/05/20 07:09:17;;;;;;;5.38;4.15;;;14.60;99.90;;;;;;5077276;28;20385;-81
2023/05/20 07:11:43;;;;;;;5.20;4.50;;;14.60;99.90;;;;;;5076828;28;20490;-81
2023/05/20 07:14:09;;;;;;;6.00;5.40;;;14.70;99.90;;;;;;5077340;28;20401;-82
2023/05/20 07:16:35;;;;;;;6.00;5.40;;;14.60;99.90;;;;;;5086695;28;20830;-82
2023/05/20 07:19:01;;;;;;;5.40;4.90;;;14.70;99.90;;;;;;5096767;28;20384;-82
2023/05/20 07:21:27;;;;;;;5.90;4.80;;;14.70;99.90;;;;;;5097211;28;20395;-82
2023/05/20 07:23:52;;;;;;;4.90;4.40;;;14.80;99.90;;;;;;5082746;28;20391;-82
2023/05/20 07:26:18;;;;;;;5.13;4.72;;;14.70;99.90;;;;;;5091302;28;20754;-82
2023/05/20 07:28:45;;;;;;;4.63;4.13;;;14.70;99.90;;;;;;5097587;28;20460;-82
2023/05/20 07:31:11;;;;;;;5.50;5.00;;;14.90;99.90;;;;;;5097592;28;20434;-82
2023/05/20 07:33:37;;;;;;;8.20;4.22;;;15.00;99.90;;;;;;5097723;28;20381;-82
2023/05/20 07:36:03;;;;;;;5.22;4.38;;;15.20;99.90;;;;;;5096209;28;20381;-82
2023/05/20 07:38:29;;;;;;;5.88;4.60;;;15.20;99.90;;;;;;5093004;28;20439;-81
2023/05/20 07:40:55;;;;;;;4.90;4.40;;;15.30;99.90;;;;;;5076438;28;20900;-82
2023/05/20 07:43:20;;;;;;;5.00;4.50;;;15.50;99.90;;;;;;5096460;28;20416;-82
2023/05/20 07:45:46;;;;;;;4.57;4.10;;;15.70;99.90;;;;;;5093791;28;20491;-82
2023/05/20 07:48:12;;;;;;;4.63;4.20;;;15.90;99.90;;;;;;5093789;28;20400;-82
2023/05/20 07:50:38;;;;;;;5.70;4.43;;;15.50;99.90;;;;;;5095985;28;20396;-82
2023/05/20 07:53:05;;;;;;;4.75;4.35;;;15.50;99.90;;;;;;5115468;28;20376;-82
2023/05/20 07:55:33;;;;;;;4.50;4.10;;;15.60;99.90;;;;;;5114384;28;20380;-82
2023/05/20 07:57:58;;;;;;;4.45;4.05;;;15.70;99.90;;;;;;5085830;28;20459;-82
2023/05/20 08:00:24;;;;;;;4.93;4.53;;;15.70;99.90;;;;;;5094003;28;20394;-82
2023/05/20 08:02:50;;;;;;;5.00;3.80;;;15.70;99.90;;;;;;5076052;28;20382;-82
2023/05/20 08:05:15;;;;;;;4.70;4.20;;;15.70;99.90;;;;;;5097004;28;20790;-82
2023/05/20 08:07:41;;;;;;;4.30;3.90;;;16.10;99.90;;;;;;5095516;28;20386;-83
2023/05/20 08:10:07;;;;;;;4.90;4.22;;;15.70;99.90;;;;;;5076968;28;20394;-83
2023/05/20 08:12:33;;;;;;;5.13;4.38;;;16.00;99.90;;;;;;5094302;28;20394;-82
2023/05/20 08:14:58;;;;;;;4.35;3.95;;;16.00;99.90;;;;;;5101622;28;20420;-83
2023/05/20 08:17:24;;;;;;;4.67;4.17;;;15.60;99.90;;;;;;5091316;28;20468;-83
2023/05/20 08:19:50;;;;;;;4.77;4.37;;;16.00;99.90;;;;;;5096496;28;20382;-82
2023/05/20 08:22:16;;;;;;;4.77;4.27;;;15.60;99.90;;;;;;5093107;28;20910;-83
2023/05/20 08:24:41;;;;;;;6.93;4.47;;;16.10;99.90;;;;;;5097447;28;20863;-83
2023/05/20 08:27:07;;;;;;;9.25;5.50;;;16.10;99.90;;;;;;5103848;28;20454;-83
2023/05/20 08:29:32;;;;;;;4.90;4.50;;;16.30;99.90;;;;;;5097476;28;20729;-83
2023/05/20 08:31:58;;;;;;;4.60;4.20;;;16.10;99.90;;;;;;5096634;28;20848;-83
2023/05/20 08:34:24;;;;;;;5.20;4.70;;;16.10;99.90;;;;;;5096187;28;20740;-83
2023/05/20 08:36:49;;;;;;;5.10;4.60;;;16.20;99.90;;;;;;5077115;28;20382;-82
2023/05/20 08:39:15;;;;;;;5.20;4.70;;;16.30;99.90;;;;;;5093001;28;20390;-82
2023/05/20 08:41:40;;;;;;;5.70;4.38;;;16.50;99.90;;;;;;5111423;28;20464;-83
2023/05/20 08:44:08;;;;;;;5.25;4.75;;;16.50;99.90;;;;;;5110809;28;20381;-82
2023/05/20 08:46:35;;;;;;;6.07;4.78;;;16.30;99.90;;;;;;5106026;28;20389;-82
2023/05/20 08:49:01;;;;;;;5.43;4.63;;;16.10;99.90;;;;;;5114593;28;20392;-82
2023/05/20 08:51:28;;;;;;;5.57;4.75;;;16.30;99.90;;;;;;5109575;28;20404;-82
2023/05/20 08:53:53;;;;;;;5.00;4.60;;;16.30;99.90;;;;;;5096484;28;20378;-82
2023/05/20 08:56:20;;;;;;;5.10;4.60;;;16.40;99.90;;;;;;5094436;28;20481;-82
2023/05/20 08:58:46;;;;;;;5.20;4.70;;;16.40;99.90;;;;;;5077296;28;20393;-82
2023/05/20 09:01:12;;;;;;;4.80;4.40;;;16.40;99.90;;;;;;5089895;28;20392;-82
2023/05/20 09:03:37;;;;;;;5.80;4.78;;;16.30;99.90;;;;;;5095695;28;20479;-83
2023/05/20 09:06:05;;;;;;;4.97;4.57;;;16.30;99.90;;;;;;5094385;28;20394;-82
2023/05/20 09:08:31;;;;;;;5.63;4.70;;;16.30;99.90;;;;;;5077062;28;20393;-83
2023/05/20 09:10:57;;;;;;;6.50;4.60;;;16.30;99.90;;;;;;5117063;28;20544;-82
2023/05/20 09:13:23;;;;;;;4.97;4.47;;;16.30;99.90;;;;;;5102204;28;20384;-83
2023/05/20 09:15:49;;;;;;;5.72;4.80;;;16.30;99.90;;;;;;5079509;28;20417;-82
2023/05/20 09:18:14;;;;;;;4.90;4.50;;;16.30;99.90;;;;;;5076762;28;20378;-83
2023/05/20 09:20:40;;;;;;;4.65;4.25;;;16.30;99.90;;;;;;5094012;28;20390;-82
2023/05/20 09:23:08;;;;;;;4.70;4.28;;;16.30;99.90;;;;;;5096894;28;20410;-82
2023/05/20 09:25:36;;;;;;;5.00;4.43;;;16.40;99.90;;;;;;5078684;28;20993;-83
2023/05/20 09:28:08;;;;;;;5.03;4.63;;;16.60;99.90;;;;;;5077203;28;20385;-83
2023/05/20 09:30:33;;;;;;;5.10;4.70;;;16.70;99.90;;;;;;5077047;28;20738;-83
2023/05/20 09:33:00;;;;;;;5.10;4.70;;;16.80;99.90;;;;;;5095692;28;20381;-83
2023/05/20 09:35:26;;;;;;;5.10;4.60;;;16.80;99.90;;;;;;5097985;28;20378;-82
2023/05/20 09:37:54;;;;;;;4.82;4.43;;;17.00;84.60;;;;;;5105362;28;20412;-82
2023/05/20 09:40:23;;;;;;;8.73;5.47;;;17.00;99.90;;;;;;5103620;28;20378;-82
2023/05/20 09:42:55;;;;;;;6.32;5.00;;;17.20;97.30;;;;;;5095965;28;20396;-81
2023/05/20 09:45:21;;;;;;;5.27;4.83;;;17.30;85.00;;;;;;5093809;28;20378;-82
2023/05/20 09:47:50;;;;;;;4.55;4.20;;;17.50;60.40;;;;;;5081903;28;20384;-82
2023/05/20 09:50:16;;;;;;;4.93;4.43;;;19.50;66.10;;;;;;5095451;28;20384;-82
2023/05/20 09:52:42;;;;;;;4.90;4.50;;;17.60;55.20;;;;;;5106828;28;20419;-82
2023/05/20 09:55:11;;;;;;;5.13;4.63;;;17.80;50.80;;;;;;5114564;28;21015;-82
2023/05/20 09:57:37;;;;;;;9.80;4.63;;;17.90;33.60;;;;;;5116214;28;20399;-83
2023/05/20 10:00:05;;;;;;;5.03;4.63;;;18.10;39.80;;;;;;5118643;28;20372;-82
2023/05/20 10:02:32;;;;;;;4.90;4.50;;;18.60;19.80;;;;;;5107212;28;20398;-82
2023/05/20 10:05:01;;;;;;;4.90;4.50;;;21.50;13.60;;;;;;5097766;28;20382;-82
2023/05/20 10:08:17;;;;;;;4.53;4.20;;;18.60;10.00;;;;;;5096854;28;20382;-82
2023/05/20 10:10:49;;;;;;;5.10;4.60;;;18.60;12.60;;;;;;5065664;22;20418;-81
2023/05/20 10:14:03;;;;;;;5.35;4.32;;;19.00;13.30;;;;;;5122233;28;20422;-82
2023/05/20 10:16:52;;;;;;;4.87;4.47;;;18.50;9.80;;;;;;5126010;28;20380;-83
2023/05/20 10:19:28;;;;;;;5.40;4.47;;;17.80;6.50;;;;;;5129419;28;20380;-83
2023/05/20 10:22:00;;;;;;;5.10;4.60;;;21.10;16.10;;;;;;5095857;28;20387;-83
2023/05/20 10:24:43;;;;;;;4.63;4.22;;;18.40;8.50;;;;;;5096852;28;20455;-83
2023/05/20 10:27:13;;;;;;;4.60;4.20;;;18.30;9.90;;;;;;5096015;28;20774;-83
2023/05/20 10:29:49;;;;;;;4.88;4.47;;;17.80;11.00;;;;;;5078169;28;20459;-83
2023/05/20 10:32:31;;;;;;;5.10;4.60;;;18.30;6.40;;;;;;5091628;28;20461;-83
2023/05/20 10:35:03;;;;;;;4.80;4.40;;;18.60;6.80;;;;;;5078606;28;20439;-82
2023/05/20 10:37:44;;;;;;;5.30;4.80;;;18.70;13.20;;;;;;5081128;28;20882;-82
2023/05/20 10:40:16;;;;;;;5.37;4.97;;;18.80;9.60;;;;;;5058006;28;20400;-83
2023/05/20 10:42:42;;;;;;;4.80;4.40;;;18.80;9.80;;;;;;5079230;28;20487;-82
2023/05/20 10:45:08;;;;;;;4.47;4.07;;;18.90;6.60;;;;;;5076177;28;20419;-82
2023/05/20 10:47:35;;;;;;;4.90;4.50;;;19.20;3.50;;;;;;5074937;28;20506;-83
2023/05/20 10:50:03;;;;;;;5.35;4.55;;;19.50;2.20;;;;;;5060704;28;20403;-81
2023/05/20 10:52:41;;;;;;;4.60;4.30;;;19.70;1.90;;;;;;5069143;28;21115;-82
2023/05/20 10:55:17;;;;;;;4.53;4.22;;;20.20;1.30;;;;;;5094089;28;20386;-84
2023/05/20 10:57:45;;;;;;;5.68;4.88;;;20.50;1.00;;;;;;5094855;28;20394;-82
2023/05/20 11:00:11;;;;;;;5.00;4.60;;;20.30;1.00;;;;;;5087373;28;20968;-82
2023/05/20 11:02:37;;;;;;;4.80;4.40;;;19.90;1.00;;;;;;5077542;28;20392;-82
2023/05/20 11:05:03;;;;;;;4.90;4.50;;;19.50;1.00;;;;;;5079965;28;20386;-83
2023/05/20 11:07:30;;;;;;;4.87;4.37;;;19.50;1.00;;;;;;5081135;28;20960;-82
2023/05/20 11:09:59;;;;;;;5.50;5.00;;;19.50;1.00;;;;;;5082623;28;20395;-82
2023/05/20 11:12:26;;;;;;;5.78;4.00;;;19.50;1.00;;;;;;5076264;28;20465;-82
2023/05/20 11:14:51;;;;;;;4.70;4.40;;;19.40;1.00;;;;;;5085990;28;20935;-82
2023/05/20 11:17:18;;;;;;;4.40;4.10;;;19.80;1.00;;;;;;5096723;28;20463;-83
2023/05/20 11:19:43;;;;;;;5.00;4.60;;;19.10;1.00;;;;;;5096303;28;20800;-82
2023/05/20 11:22:09;;;;;;;5.00;4.60;;;19.20;6.10;;;;;;5094404;28;20382;-81
2023/05/20 11:24:35;;;;;;;5.03;4.63;;;19.00;1.00;;;;;;5087091;28;20439;-79
2023/05/20 11:27:01;;;;;;;4.90;4.50;;;19.40;1.00;;;;;;5068148;28;20387;-79
2023/05/20 11:29:27;;;;;;;4.70;4.30;;;20.30;1.00;;;;;;5075751;28;20394;-79
2023/05/20 11:31:54;;;;;;;5.07;4.57;;;20.40;1.00;;;;;;5093181;28;20919;-79
2023/05/20 11:34:21;;;;;;;4.95;4.50;;;20.50;1.00;;;;;;5093439;28;20423;-79
2023/05/20 11:36:46;;;;;;;6.60;4.30;;;20.90;1.00;;;;;;5092104;28;20757;-80
2023/05/20 11:39:13;;;;;;;5.33;4.47;;;20.80;1.00;;;;;;5093106;28;20404;-79
2023/05/20 11:41:41;;;;;;;5.03;4.63;;;21.10;1.00;;;;;;5093228;28;20449;-80
2023/05/20 11:44:13;;;;;;;5.28;4.60;;;20.70;1.00;;;;;;5093336;28;20390;-79
2023/05/20 11:46:44;;;;;;;4.90;4.50;;;21.60;1.00;;;;;;5061563;28;20954;-79
2023/05/20 11:49:12;;;;;;;4.80;4.30;;;20.90;1.00;;;;;;5072844;28;20399;-79
2023/05/20 11:51:38;;;;;;;4.85;4.45;;;21.10;1.00;;;;;;5072752;28;20432;-78
2023/05/20 11:54:06;;;;;;;5.10;4.60;;;21.10;1.00;;;;;;5055314;28;20742;-79
2023/05/20 11:56:36;;;;;;;4.75;4.35;;;21.50;1.00;;;;;;5064342;28;20393;-79
2023/05/20 11:59:05;;;;;;;4.40;4.10;;;22.60;1.00;;;;;;5092269;28;20848;-80
2023/05/20 12:01:42;;;;;;;4.97;4.40;;;22.90;1.00;;;;;;5091914;28;20461;-80
2023/05/20 12:04:09;;;;;;;4.55;4.15;;;22.10;1.00;;;;;;5070699;28;20391;-79
2023/05/20 12:06:38;;;;;;;4.80;4.40;;;21.50;1.00;;;;;;5071881;28;20395;-80
2023/05/20 12:09:08;;;;;;;4.93;4.13;;;21.60;1.00;;;;;;5072304;28;20932;-79
2023/05/20 12:11:35;;;;;;;4.78;4.38;;;20.60;1.00;;;;;;5071824;28;20407;-79
2023/05/20 12:14:02;;;;;;;6.30;4.80;;;20.80;1.00;;;;;;5089976;28;20386;-79
2023/05/20 12:16:30;;;;;;;5.40;4.90;;;20.80;1.00;;;;;;5064974;28;20801;-79
2023/05/20 12:18:55;;;;;;;5.20;4.70;;;20.60;1.00;;;;;;5073025;28;20387;-80
2023/05/20 12:21:21;;;;;;;4.55;4.25;;;20.30;1.00;;;;;;5072694;28;20382;-79
2023/05/20 12:23:46;;;;;;;5.10;4.60;;;20.60;1.00;;;;;;5074541;28;20393;-80
2023/05/20 12:26:12;;;;;;;4.60;4.30;;;21.00;1.00;;;;;;5073559;28;20390;-79
2023/05/20 12:28:37;;;;;;;4.60;4.30;;;20.70;1.00;;;;;;5092467;28;20400;-79
2023/05/20 12:31:03;;;;;;;4.87;4.47;;;20.70;1.00;;;;;;5091542;28;20412;-79
2023/05/20 12:33:28;;;;;;;5.20;4.45;;;20.50;1.00;;;;;;5092396;28;20393;-79
2023/05/20 12:35:54;;;;;;;4.20;3.90;;;21.60;1.00;;;;;;5079145;28;21113;-78
2023/05/20 12:38:19;;;;;;;4.20;3.80;;;22.00;1.00;;;;;;5054094;28;20754;-78
2023/05/20 12:40:45;;;;;;;4.20;3.80;;;21.80;1.00;;;;;;5077800;28;20475;-79
2023/05/20 12:43:10;;;;;;;4.43;4.13;;;22.60;1.00;;;;;;5092040;28;20877;-79
2023/05/20 12:45:36;;;;;;;3.92;3.58;;;22.40;1.00;;;;;;5092059;28;20447;-79